Etusivu
METAR-TAF:

METAR-TAF

Lentoasemat :

Piešťany, Slovakia

Leveyspiiri: 48-37-30N, Pituuspiiri: 017-49-43E, korkeus merenpinnasta: 163 m

Tämänhetkinen sää

Tämä raportti tehtiin 25 minuuttia sitten, kello 12.00 UTC
Tuuli 10 kn etelästä, vaihdellen etelän/kaakon ja etelän/lounaan välillä
Lämpötila 29°C
Kosteus 48%
Ilmanpaine 1017 hPa
Näkyvyys 10 km tai enemmän
ei pilviä alle 1500 m:ssä eikä cumulonimbus-pilviä

METAR: LZPP 181200Z 18010KT 150V210 CAVOK 29/17 Q1017

Aika: 14:25 (12:25 UTC)

Sääennuste

Tämä raportti tehtiin 1 tunti ja 10 minuuttia sitten, kello 11.15 UTC
Ennuste voimassa 18. päivästä klo 12 UTC - 18. päivään klo 21 UTC
Tuuli 9 kn etelästä
Näkyvyys 10 km tai enemmän
ei pilviä alle 1500 m:ssä eikä cumulonimbus-pilviä

TAF: LZPP 181115Z 1812/1821 18009KT CAVOK

Säähavainnot ja -ennusteet yli 4000 lentoasemalta (METAR- ja TAF-raportit).

Käytössä olevat sääasemat on merkitty karttaan keltaisilla ja punaisilla pisteillä.

Aseta hiiri pisteen päälle nähdäksesi sääaseman nimen.

Klikkaa sitten nähdäksesi säähavainnot ja -ennusteet.

Kartan vaihtaminen: klikkaa mustalla rastilla varustettuja vihreitä pisteitä, niin voit zoomata sisään; viivalla varustettua vihreää pistettä, niin voit zoomata ulos tai vihreitä nuolia, niin pääset viereisille kartoille.


METAR-TAF: